LTAD/ANK METAR and TAF weather

Enter ICAO airport designator
Station Type Date Time Source
LTAD METAR 2019/12/07 06:50 UTC NOAA

LTAD 070650Z VRB02KT 9999 OVC009 M02/M04 Q1024 BECMG BKN015 RMK RWY29 VRB01KT


Station Type Date Time Source
LTAD Decoded METAR 2019/12/07 06:50 UTC NOAA

Ankara / Etimesgut, Turkey (LTAD) 39-57N 032-41E 806M
Dec 07, 2019 - 01:50 AM EST / 2019.12.07 0650 UTC
Wind: Variable at 2 MPH (2 KT):0
Visibility: greater than 7 mile(s):0
Sky conditions: overcast
Temperature: 28 F (-2 C)
Dew Point: 24 F (-4 C)
Relative Humidity: 86%
Pressure (altimeter): 30.24 in. Hg (1024 hPa)
ob: LTAD 070650Z VRB02KT 9999 OVC009 M02/M04 Q1024 BECMG BKN015 RMK RWY29 VRB01KT
cycle: 7

Station Type Date Time Source
LTAD TAF UTC NOAA

Error!

Example: see airport list